createdAt,value
2022-09-14T00:00:16.843Z,84.16
2022-09-14T00:05:18.688Z,84.77
2022-09-14T00:10:20.262Z,84.18
2022-09-14T00:15:22.132Z,86.24
2022-09-14T00:20:23.732Z,84.87
2022-09-14T00:25:26.552Z,84.59
2022-09-14T00:30:28.640Z,85.83
2022-09-14T00:35:30.444Z,86.13
2022-09-14T00:40:32.459Z,85.70
2022-09-14T00:45:34.272Z,86.79
2022-09-14T00:50:36.588Z,86.47
2022-09-14T00:55:39.036Z,86.01
2022-09-14T01:00:40.982Z,85.83
2022-09-14T01:05:50.261Z,85.51
2022-09-14T01:17:30.558Z,84.83
2022-09-14T01:22:40.733Z,85.15
2022-09-14T01:27:45.093Z,84.84
2022-09-14T01:32:57.110Z,85.19
2022-09-14T01:38:10.413Z,85.15
2022-09-14T01:43:18.404Z,85.16
2022-09-14T01:48:27.078Z,85.32
2022-09-14T01:53:49.979Z,85.54
2022-09-14T01:59:20.799Z,85.77
2022-09-14T02:04:36.405Z,85.45
2022-09-14T02:09:39.341Z,85.65
2022-09-14T02:14:43.675Z,85.89
2022-09-14T02:19:53.198Z,85.65
2022-09-14T02:24:55.777Z,86.10
2022-09-14T02:29:58.467Z,86.01
2022-09-14T02:35:20.064Z,86.10
2022-09-14T02:40:37.967Z,86.35
2022-09-14T02:45:58.506Z,86.19
2022-09-14T02:51:28.142Z,86.32
2022-09-14T02:56:29.945Z,89.85
2022-09-14T03:01:31.807Z,87.58
2022-09-14T03:06:33.949Z,87.38
2022-09-14T03:11:36.069Z,87.67
2022-09-14T03:16:39.237Z,87.12
2022-09-14T03:21:41.031Z,87.14
2022-09-14T03:26:42.977Z,87.84
2022-09-14T03:31:44.812Z,87.53
2022-09-14T03:36:46.676Z,87.60
2022-09-14T03:41:48.286Z,87.74
2022-09-14T03:46:50.001Z,87.76
2022-09-14T03:51:52.873Z,87.75
2022-09-14T03:56:56.330Z,87.74
2022-09-14T04:01:58.391Z,87.51
2022-09-14T04:06:59.990Z,87.50
2022-09-14T04:12:01.982Z,87.49
2022-09-14T04:17:04.536Z,87.75
2022-09-14T04:22:06.449Z,87.85
2022-09-14T04:27:08.266Z,87.64
2022-09-14T04:32:10.070Z,88.09
2022-09-14T04:37:12.076Z,88.26
2022-09-14T04:42:13.677Z,88.54
2022-09-14T04:47:15.605Z,88.96
2022-09-14T04:52:18.235Z,89.65
2022-09-14T04:57:19.854Z,89.40
2022-09-14T05:02:21.811Z,89.86
2022-09-14T05:07:23.511Z,89.93
2022-09-14T05:12:25.351Z,89.97
2022-09-14T05:17:26.935Z,90.30
2022-09-14T05:22:28.546Z,89.96
2022-09-14T05:27:30.393Z,90.52
2022-09-14T05:32:32.176Z,90.11
2022-09-14T05:37:33.969Z,90.43
2022-09-14T05:42:36.409Z,90.21
2022-09-14T05:47:39.293Z,90.25
2022-09-14T05:52:41.469Z,90.48
2022-09-14T05:57:43.253Z,90.67
2022-09-14T06:02:49.611Z,92.03
2022-09-14T06:07:53.199Z,91.78
2022-09-14T06:12:55.596Z,92.54
2022-09-14T06:17:57.616Z,92.02
2022-09-14T06:22:59.493Z,92.01
2022-09-14T06:28:01.157Z,91.50
2022-09-14T06:33:04.856Z,91.56
2022-09-14T06:38:07.627Z,91.17
2022-09-14T06:43:09.726Z,91.65
2022-09-14T06:48:11.567Z,91.31
2022-09-14T06:53:13.210Z,91.65
2022-09-14T06:58:14.992Z,91.32
2022-09-14T07:03:16.807Z,91.56
2022-09-14T07:08:18.664Z,91.33
2022-09-14T07:13:20.601Z,91.13
2022-09-14T07:18:23.530Z,90.74
2022-09-14T07:23:25.136Z,90.60
2022-09-14T07:28:27.494Z,90.67
2022-09-14T07:33:29.970Z,90.58
2022-09-14T07:38:50.969Z,93.63
2022-09-14T07:43:56.649Z,94.20
2022-09-14T07:49:00.926Z,92.90
2022-09-14T07:54:03.693Z,93.04
2022-09-14T08:04:27.446Z,92.81
2022-09-14T08:09:29.350Z,92.46
2022-09-14T08:14:30.970Z,91.90
2022-09-14T08:19:32.566Z,91.15
2022-09-14T08:24:34.855Z,90.72
2022-09-14T08:29:36.468Z,90.04
2022-09-14T08:34:38.340Z,88.53
2022-09-14T08:39:39.916Z,87.11
2022-09-14T08:44:44.570Z,88.07
2022-09-14T08:49:48.065Z,87.10
2022-09-14T08:54:53.741Z,85.91
2022-09-14T09:00:00.914Z,86.71
2022-09-14T09:05:32.767Z,83.79
2022-09-14T09:10:38.586Z,85.51
2022-09-14T09:15:49.092Z,84.21
2022-09-14T09:20:54.907Z,82.75
2022-09-14T09:26:27.442Z,83.44
2022-09-14T09:31:36.424Z,82.83
2022-09-14T09:37:04.733Z,82.34
2022-09-14T09:42:13.049Z,82.40
2022-09-14T09:47:14.854Z,82.52
2022-09-14T09:52:17.567Z,83.43
2022-09-14T09:57:36.937Z,81.57
2022-09-14T10:02:39.732Z,82.07
2022-09-14T10:07:50.325Z,81.41
2022-09-14T10:12:55.256Z,79.86
2022-09-14T10:18:11.994Z,79.35
2022-09-14T10:23:19.528Z,81.15
2022-09-14T10:28:29.131Z,81.06
2022-09-14T10:33:31.024Z,81.02
2022-09-14T10:38:44.138Z,81.17
2022-09-14T10:43:52.256Z,80.86
2022-09-14T10:49:13.919Z,80.99
2022-09-14T10:54:33.788Z,80.25
2022-09-14T10:59:44.422Z,80.48
2022-09-14T11:05:19.334Z,81.08
2022-09-14T11:10:38.746Z,82.32
2022-09-14T11:16:04.956Z,82.96
2022-09-14T11:21:21.952Z,84.24
2022-09-14T11:26:31.490Z,84.90
2022-09-14T11:31:40.666Z,85.30
2022-09-14T11:36:54.597Z,84.05
2022-09-14T11:42:00.910Z,84.16
2022-09-14T11:47:05.257Z,85.38
2022-09-14T11:52:23.984Z,85.91
2022-09-14T11:57:33.639Z,86.61
2022-09-14T12:02:38.039Z,85.07
2022-09-14T12:07:39.959Z,83.95
2022-09-14T12:12:44.397Z,83.06
2022-09-14T12:17:46.121Z,82.31
2022-09-14T12:22:50.289Z,81.84
2022-09-14T12:27:52.336Z,78.89
2022-09-14T12:32:53.984Z,77.75
2022-09-14T12:37:55.595Z,76.90
2022-09-14T12:42:57.238Z,76.57
2022-09-14T12:47:58.904Z,77.07
2022-09-14T12:53:24.417Z,75.45
2022-09-14T12:58:42.131Z,75.33
2022-09-14T13:03:48.687Z,75.73
2022-09-14T13:08:55.345Z,75.30
2022-09-14T13:13:58.070Z,75.50
2022-09-14T13:19:02.574Z,74.79
2022-09-14T13:24:18.632Z,74.26
2022-09-14T13:29:21.076Z,75.38
2022-09-14T13:34:38.682Z,75.49
2022-09-14T13:39:41.976Z,74.80
2022-09-14T13:44:46.631Z,74.89
2022-09-14T13:49:50.734Z,75.09
2022-09-14T13:55:14.450Z,75.02
2022-09-14T14:00:22.110Z,74.22
2022-09-14T14:05:30.342Z,74.45
2022-09-14T14:10:36.455Z,75.01
2022-09-14T14:15:38.048Z,75.03
2022-09-14T14:20:40.173Z,75.04
2022-09-14T14:25:48.350Z,74.68
2022-09-14T14:30:50.815Z,75.05
2022-09-14T14:35:54.586Z,73.52
2022-09-14T14:40:58.142Z,74.04
2022-09-14T14:46:01.456Z,73.46
2022-09-14T14:51:03.586Z,73.46
2022-09-14T14:56:05.743Z,72.76
2022-09-14T15:01:08.678Z,73.41
2022-09-14T15:06:23.133Z,73.54
2022-09-14T15:11:24.875Z,73.95
2022-09-14T15:16:26.706Z,74.41
2022-09-14T15:21:28.654Z,74.05
2022-09-14T15:26:30.670Z,74.65
2022-09-14T15:31:36.230Z,75.15
2022-09-14T15:36:52.702Z,76.21
2022-09-14T15:41:55.308Z,76.10
2022-09-14T15:46:57.573Z,75.91
2022-09-14T15:51:59.383Z,76.34
2022-09-14T15:57:01.293Z,76.12
2022-09-14T16:02:03.943Z,76.39
2022-09-14T16:07:09.975Z,76.32
2022-09-14T16:12:13.360Z,76.55
2022-09-14T16:17:15.706Z,76.54
2022-09-14T16:22:17.695Z,76.68
2022-09-14T16:27:19.298Z,76.88
2022-09-14T16:32:22.178Z,76.81
2022-09-14T16:37:24.060Z,77.04
2022-09-14T16:42:25.830Z,78.93
2022-09-14T16:47:27.588Z,80.20
2022-09-14T16:52:29.977Z,80.69
2022-09-14T16:57:31.802Z,81.06
2022-09-14T17:02:33.668Z,81.88
2022-09-14T17:07:35.406Z,81.88
2022-09-14T17:12:37.293Z,82.54
2022-09-14T17:17:39.072Z,82.94
2022-09-14T17:22:40.694Z,83.07
2022-09-14T17:27:42.312Z,83.81
2022-09-14T17:32:43.913Z,83.79
2022-09-14T17:37:45.514Z,83.76
2022-09-14T17:42:47.283Z,84.95
2022-09-14T17:47:49.134Z,85.31
2022-09-14T17:52:51.385Z,85.66
2022-09-14T17:57:53.191Z,85.74
2022-09-14T18:02:55.103Z,85.81
2022-09-14T18:07:57.237Z,85.82
2022-09-14T18:12:59.032Z,86.21
2022-09-14T18:18:00.791Z,85.87
2022-09-14T18:23:02.914Z,85.96
2022-09-14T18:28:05.351Z,86.16
2022-09-14T18:33:06.962Z,86.78
2022-09-14T18:38:09.169Z,87.67
2022-09-14T18:43:11.189Z,87.97
2022-09-14T18:48:14.228Z,87.85
2022-09-14T18:53:16.056Z,88.09
2022-09-14T18:58:17.625Z,88.11
2022-09-14T19:03:19.194Z,87.78
2022-09-14T19:08:23.922Z,87.77
2022-09-14T19:13:25.677Z,88.00
2022-09-14T19:18:27.251Z,88.17
2022-09-14T19:23:28.823Z,88.07
2022-09-14T19:28:30.649Z,88.11
2022-09-14T19:33:32.832Z,88.61
2022-09-14T19:38:34.611Z,88.75
2022-09-14T19:43:36.578Z,89.20
2022-09-14T19:48:39.020Z,89.62
2022-09-14T19:53:41.404Z,89.86
2022-09-14T19:58:46.560Z,90.85
2022-09-14T20:03:49.811Z,91.95
2022-09-14T20:09:00.290Z,92.52
2022-09-14T20:14:04.770Z,95.23
2022-09-14T20:19:09.491Z,95.34
2022-09-14T20:24:18.672Z,94.77
2022-09-14T20:29:23.019Z,95.49
2022-09-14T20:34:25.216Z,95.02
2022-09-14T20:39:27.764Z,96.60
2022-09-14T20:44:29.382Z,95.40
2022-09-14T20:49:31.327Z,96.01
2022-09-14T20:54:33.102Z,95.37
2022-09-14T20:59:35.063Z,95.11
2022-09-14T21:04:36.750Z,94.89
2022-09-14T21:09:39.151Z,94.89
2022-09-14T21:14:42.413Z,94.66
2022-09-14T21:19:44.138Z,94.82
2022-09-14T21:24:45.801Z,95.01
2022-09-14T21:29:49.764Z,94.79
2022-09-14T21:34:51.342Z,95.15
2022-09-14T21:39:54.106Z,95.58
2022-09-14T21:44:55.718Z,95.57
2022-09-14T21:49:57.341Z,95.76
2022-09-14T21:54:58.981Z,95.66
2022-09-14T22:00:00.959Z,95.46
2022-09-14T22:05:03.853Z,95.42
2022-09-14T22:10:06.529Z,95.50
2022-09-14T22:15:09.191Z,95.55
2022-09-14T22:20:11.627Z,96.04
2022-09-14T22:25:13.445Z,96.59
2022-09-14T22:30:15.600Z,96.26
2022-09-14T22:35:17.235Z,95.95
2022-09-14T22:40:19.153Z,96.09
2022-09-14T22:45:20.970Z,95.62
2022-09-14T22:50:22.665Z,95.54
2022-09-14T22:55:25.564Z,95.88
2022-09-14T23:00:27.213Z,96.13
2022-09-14T23:05:29.041Z,96.38
2022-09-14T23:10:31.117Z,96.27
2022-09-14T23:15:37.528Z,96.13
2022-09-14T23:20:40.644Z,96.44
2022-09-14T23:25:42.474Z,96.95
2022-09-14T23:30:52.332Z,96.67
2022-09-14T23:35:54.446Z,96.53
2022-09-14T23:40:58.465Z,96.86
2022-09-14T23:46:00.249Z,96.75
2022-09-14T23:51:05.448Z,96.89
2022-09-14T23:56:07.993Z,97.06
